Time;durP1;ratioP1;P1;durP2;ratioP2;P2;SDS_P1;SDS_P2;PMS_P1;PMS_P2;Temp;Humidity;BMP_temperature;BMP_pressure;BME280_temperature;BME280_humidity;BME280_pressure;Samples;Min_cycle;Max_cycle;Signal;HPM_P1;HPM_P2
2022/11/18 00:01:25;;;;;;;7.75;6.50;;;7.80;99.90;;;;;;5013360;28;20279;-75
2022/11/18 00:03:51;;;;;;;9.68;6.78;;;7.80;99.90;;;;;;5012048;28;20183;-75
2022/11/18 00:06:19;;;;;;;6.60;5.60;;;7.80;99.90;;;;;;5012632;28;20210;-75
2022/11/18 00:14:51;;;;;;;10.38;6.13;;;7.70;99.90;;;;;;5017005;28;20222;-75
2022/11/18 00:17:21;;;;;;;11.07;5.95;;;7.70;99.90;;;;;;5015273;28;20195;-75
2022/11/18 00:19:49;;;;;;;7.97;6.20;;;7.70;99.90;;;;;;5015981;28;20183;-76
2022/11/18 00:22:15;;;;;;;4.50;4.07;;;7.70;99.90;;;;;;5016158;28;20171;-76
2022/11/18 00:24:40;;;;;;;6.65;4.45;;;7.80;99.90;;;;;;5015175;28;20179;-76
2022/11/18 00:27:06;;;;;;;7.00;3.60;;;7.90;99.90;;;;;;5016305;28;20211;-76
2022/11/18 00:29:32;;;;;;;4.20;3.60;;;7.90;99.90;;;;;;5015126;28;20270;-76
2022/11/18 00:31:58;;;;;;;4.60;4.00;;;8.00;99.90;;;;;;5016344;28;20169;-76
2022/11/18 00:34:24;;;;;;;6.07;3.30;;;8.10;99.90;;;;;;5015237;28;20191;-76
2022/11/18 00:36:50;;;;;;;6.07;2.92;;;8.10;99.90;;;;;;5015263;28;20273;-76
2022/11/18 00:39:30;;;;;;;4.32;3.70;;;8.10;99.90;;;;;;5015480;28;20642;-75
2022/11/18 00:44:40;;;;;;;5.25;4.43;;;8.20;99.90;;;;;;5018291;28;20182;-75
2022/11/18 00:47:06;;;;;;;8.15;5.07;;;8.30;99.90;;;;;;5016035;28;20223;-75
2022/11/18 00:50:01;;;;;;;8.07;5.07;;;8.40;99.90;;;;;;5015211;28;20175;-75
2022/11/18 00:52:26;;;;;;;9.45;5.38;;;8.30;99.90;;;;;;5016348;28;20243;-75
2022/11/18 00:54:52;;;;;;;7.93;5.70;;;8.30;99.90;;;;;;5015007;28;20314;-75
2022/11/18 00:57:19;;;;;;;7.07;5.15;;;8.20;99.90;;;;;;5015443;28;20254;-75
2022/11/18 00:59:45;;;;;;;7.13;5.28;;;8.20;99.90;;;;;;5015509;28;20186;-75
2022/11/18 01:02:10;;;;;;;5.93;5.07;;;8.30;99.90;;;;;;5014833;28;20184;-75
2022/11/18 01:04:36;;;;;;;5.93;4.80;;;8.30;99.90;;;;;;5014591;28;20175;-75
2022/11/18 01:07:01;;;;;;;5.28;4.65;;;8.30;99.90;;;;;;5014277;28;20242;-75
2022/11/18 01:09:27;;;;;;;7.43;5.38;;;8.30;99.90;;;;;;5014490;28;20175;-75
2022/11/18 01:14:36;;;;;;;5.32;4.65;;;8.20;99.90;;;;;;5016074;28;20171;-75
2022/11/18 01:17:02;;;;;;;6.40;5.00;;;8.30;99.90;;;;;;5015850;28;20207;-75
2022/11/18 01:19:28;;;;;;;5.90;4.72;;;8.30;99.90;;;;;;5014801;28;20179;-75
2022/11/18 01:21:55;;;;;;;6.45;4.85;;;8.30;99.90;;;;;;5015613;28;20218;-75
2022/11/18 01:24:21;;;;;;;5.38;4.88;;;8.20;99.90;;;;;;5015010;28;20187;-75
2022/11/18 01:26:47;;;;;;;6.97;4.95;;;8.20;99.90;;;;;;5013945;28;20207;-75
2022/11/18 01:29:12;;;;;;;5.00;4.45;;;8.20;99.90;;;;;;5014346;28;20203;-75
2022/11/18 01:31:38;;;;;;;6.57;4.78;;;8.20;99.90;;;;;;5015475;28;20187;-75
2022/11/18 01:34:12;;;;;;;5.80;4.60;;;8.20;99.90;;;;;;5014371;28;20230;-75
2022/11/18 01:36:37;;;;;;;7.95;4.95;;;8.20;99.90;;;;;;5014710;28;20242;-75
2022/11/18 01:39:03;;;;;;;6.07;4.88;;;8.10;99.90;;;;;;5014618;28;20214;-75
2022/11/18 01:41:29;;;;;;;7.05;4.75;;;8.10;99.90;;;;;;5013833;28;20172;-75
2022/11/18 01:44:00;;;;;;;5.43;4.40;;;8.10;99.90;;;;;;5014116;28;20231;-75
2022/11/18 01:46:29;;;;;;;8.95;4.43;;;8.10;99.90;;;;;;5015331;28;20269;-75
2022/11/18 01:49:01;;;;;;;7.68;4.40;;;8.20;99.90;;;;;;5014851;28;20183;-75
2022/11/18 01:51:33;;;;;;;4.70;4.00;;;8.20;99.90;;;;;;5015688;28;20163;-75
2022/11/18 01:54:05;;;;;;;5.65;4.28;;;8.30;99.90;;;;;;5014230;28;20182;-75
2022/11/18 01:56:42;;;;;;;4.88;4.47;;;8.40;99.90;;;;;;5013794;28;20693;-75
2022/11/18 01:59:12;;;;;;;5.13;4.63;;;8.40;99.90;;;;;;5014788;28;20167;-75
2022/11/18 02:01:38;;;;;;;4.50;4.10;;;8.50;99.90;;;;;;5014573;28;20179;-75
2022/11/18 02:04:04;;;;;;;7.30;4.55;;;8.40;99.90;;;;;;5013429;28;20186;-75
2022/11/18 02:06:29;;;;;;;6.75;5.28;;;8.30;99.90;;;;;;5013207;28;20250;-75
2022/11/18 02:08:55;;;;;;;7.07;4.50;;;8.20;99.90;;;;;;5013370;28;20206;-75
2022/11/18 02:14:08;;;;;;;5.43;4.82;;;8.30;99.90;;;;;;5014489;28;20209;-76
2022/11/18 02:16:59;;;;;;;5.68;5.00;;;8.30;99.90;;;;;;5013075;28;20210;-75
2022/11/18 02:19:28;;;;;;;5.28;4.78;;;8.30;99.90;;;;;;5014768;28;20183;-76
2022/11/18 02:22:23;;;;;;;7.18;4.53;;;8.30;99.90;;;;;;5013666;28;20176;-76
2022/11/18 02:25:01;;;;;;;9.02;4.78;;;8.40;99.90;;;;;;5013891;28;20179;-76
2022/11/18 02:27:56;;;;;;;6.22;4.95;;;8.30;99.90;;;;;;5013123;28;20203;-76
2022/11/18 02:30:22;;;;;;;7.03;4.97;;;8.30;99.90;;;;;;5012078;28;20176;-76
2022/11/18 02:33:14;;;;;;;4.80;4.40;;;8.40;99.90;;;;;;5012955;28;20597;-76
2022/11/18 02:35:43;;;;;;;6.22;4.82;;;8.40;99.90;;;;;;5013272;28;20199;-76
2022/11/18 02:38:22;;;;;;;5.88;4.60;;;8.20;99.90;;;;;;5013997;28;20249;-75
2022/11/18 02:41:11;;;;;;;5.78;4.20;;;8.20;99.90;;;;;;5013664;28;20197;-75
2022/11/18 02:43:42;;;;;;;4.95;4.25;;;8.20;99.90;;;;;;5013580;28;20182;-75
2022/11/18 02:46:13;;;;;;;5.15;3.88;;;8.20;99.90;;;;;;5013949;28;20171;-75
2022/11/18 02:48:45;;;;;;;5.55;4.03;;;8.40;99.90;;;;;;5013024;28;20253;-75
2022/11/18 02:51:14;;;;;;;5.35;4.25;;;8.40;99.90;;;;;;5013824;28;20199;-75
2022/11/18 02:53:42;;;;;;;8.68;4.75;;;8.40;99.90;;;;;;5012787;28;20293;-75
2022/11/18 02:56:09;;;;;;;4.90;4.07;;;8.40;99.90;;;;;;5013748;28;20175;-75
2022/11/18 02:58:34;;;;;;;6.93;4.30;;;8.40;99.90;;;;;;5012539;28;20179;-76
2022/11/18 03:01:00;;;;;;;6.35;4.68;;;8.40;99.90;;;;;;5012614;28;20260;-76
2022/11/18 03:03:27;;;;;;;6.32;3.97;;;8.40;99.90;;;;;;5013716;28;20226;-76
2022/11/18 03:06:28;;;;;;;5.22;4.07;;;8.50;99.90;;;;;;5013723;28;20175;-76
2022/11/18 03:09:17;;;;;;;4.95;3.80;;;8.50;99.90;;;;;;4937237;29;20191;-76
2022/11/18 03:12:04;;;;;;;4.43;4.03;;;8.50;99.90;;;;;;5008987;28;20270;-76
2022/11/18 03:14:45;;;;;;;5.93;4.78;;;8.50;99.90;;;;;;5012489;28;20175;-76
2022/11/18 03:17:28;;;;;;;6.43;5.18;;;8.50;99.90;;;;;;5013255;28;20222;-75
2022/11/18 03:20:10;;;;;;;7.50;4.97;;;8.40;99.90;;;;;;5013896;28;20170;-75
2022/11/18 03:22:54;;;;;;;5.75;4.68;;;8.40;99.90;;;;;;5012337;28;20171;-75
2022/11/18 03:25:48;;;;;;;5.65;5.10;;;8.40;99.90;;;;;;5013640;28;20641;-75
2022/11/18 03:28:26;;;;;;;5.43;4.93;;;8.40;99.90;;;;;;5013502;28;20290;-75
2022/11/18 03:31:47;;;;;;;8.35;4.95;;;8.40;99.90;;;;;;5013148;28;20623;-75
2022/11/18 03:34:16;;;;;;;5.82;5.15;;;8.40;99.90;;;;;;4937698;29;20181;-75
2022/11/18 03:36:46;;;;;;;6.03;5.43;;;8.40;99.90;;;;;;5010955;28;20223;-75
2022/11/18 03:39:14;;;;;;;6.85;5.50;;;8.40;99.90;;;;;;5012228;28;20179;-75
2022/11/18 03:41:50;;;;;;;6.45;5.15;;;8.50;99.90;;;;;;5013759;28;20187;-75
2022/11/18 03:44:26;;;;;;;4.90;4.40;;;8.50;99.90;;;;;;5015956;28;20225;-75
2022/11/18 03:47:01;;;;;;;8.73;5.45;;;8.50;99.90;;;;;;5017312;28;20218;-75
2022/11/18 03:49:33;;;;;;;7.68;5.07;;;8.50;99.90;;;;;;5017349;28;20171;-75
2022/11/18 03:52:06;;;;;;;7.38;5.07;;;8.50;99.90;;;;;;5015917;28;20246;-75
2022/11/18 03:54:34;;;;;;;6.05;5.10;;;8.50;99.90;;;;;;5017027;28;20164;-75
2022/11/18 03:57:10;;;;;;;8.38;4.60;;;8.60;99.90;;;;;;5015684;28;20211;-75
2022/11/18 03:59:49;;;;;;;9.23;5.82;;;8.50;99.90;;;;;;5016622;28;20310;-75
2022/11/18 04:02:20;;;;;;;7.13;5.47;;;8.50;99.90;;;;;;5016656;28;20179;-75
2022/11/18 04:04:49;;;;;;;9.52;5.43;;;8.50;99.90;;;;;;5017219;28;20160;-75
2022/11/18 04:07:29;;;;;;;10.23;5.75;;;8.50;99.90;;;;;;5016722;28;20203;-75
2022/11/18 04:10:07;;;;;;;6.75;5.85;;;8.40;99.90;;;;;;5016161;28;20167;-74
2022/11/18 04:12:37;;;;;;;7.97;7.18;;;8.40;99.90;;;;;;5016978;28;20658;-74
2022/11/18 04:15:03;;;;;;;9.45;8.48;;;8.30;99.90;;;;;;5015558;28;20180;-74
2022/11/18 04:17:28;;;;;;;11.88;8.57;;;8.40;99.90;;;;;;5015317;28;20265;-75
2022/11/18 04:19:54;;;;;;;9.18;6.80;;;8.50;99.90;;;;;;5016888;28;20593;-75
2022/11/18 04:22:20;;;;;;;9.43;7.57;;;8.50;99.90;;;;;;5015317;28;20187;-75
2022/11/18 04:24:45;;;;;;;20.17;16.60;;;8.50;99.90;;;;;;5015269;28;20182;-75
2022/11/18 04:27:11;;;;;;;15.10;11.45;;;8.40;99.90;;;;;;5015180;28;20250;-75
2022/11/18 04:29:37;;;;;;;12.65;7.25;;;8.40;99.90;;;;;;5015151;28;20172;-75
2022/11/18 04:32:03;;;;;;;20.10;10.15;;;8.40;99.90;;;;;;5016070;28;20310;-75
2022/11/18 04:34:29;;;;;;;22.23;13.10;;;8.40;99.90;;;;;;5015229;28;20176;-75
2022/11/18 04:36:55;;;;;;;24.13;12.90;;;8.40;99.90;;;;;;5015308;28;20281;-75
2022/11/18 04:39:21;;;;;;;24.67;8.57;;;8.40;99.90;;;;;;5015342;28;20186;-75
2022/11/18 04:41:55;;;;;;;17.27;8.02;;;8.30;99.90;;;;;;5014991;28;20183;-75
2022/11/18 04:44:22;;;;;;;16.10;7.05;;;8.30;99.90;;;;;;5016107;28;20187;-75
2022/11/18 04:46:47;;;;;;;17.65;7.20;;;8.40;99.90;;;;;;5016233;28;20207;-75
2022/11/18 04:49:14;;;;;;;15.43;6.85;;;8.50;99.90;;;;;;5016328;28;20178;-75
2022/11/18 04:51:41;;;;;;;13.95;7.50;;;8.50;99.90;;;;;;5015188;28;20171;-75
2022/11/18 04:54:07;;;;;;;17.38;7.38;;;8.50;99.90;;;;;;5015132;28;20175;-75
2022/11/18 04:56:33;;;;;;;14.88;7.45;;;8.40;99.90;;;;;;5014534;28;20210;-75
2022/11/18 04:58:59;;;;;;;15.60;7.47;;;8.40;99.90;;;;;;5014614;28;20184;-75
2022/11/18 05:01:26;;;;;;;12.45;7.80;;;8.40;99.90;;;;;;5016080;28;20175;-75
2022/11/18 05:03:52;;;;;;;25.27;7.82;;;8.40;99.90;;;;;;5014833;28;20183;-75
2022/11/18 05:06:17;;;;;;;25.70;8.20;;;8.40;99.90;;;;;;5014622;28;20184;-75
2022/11/18 05:08:43;;;;;;;27.77;8.80;;;8.40;99.90;;;;;;5014794;28;20182;-75
2022/11/18 05:13:53;;;;;;;31.17;8.80;;;8.30;99.90;;;;;;5016087;28;20582;-75
2022/11/18 05:16:19;;;;;;;30.80;9.60;;;8.20;99.90;;;;;;5015641;28;20175;-75
2022/11/18 05:18:44;;;;;;;20.77;9.27;;;8.20;99.90;;;;;;5014609;28;20230;-79
2022/11/18 05:21:10;;;;;;;36.83;10.07;;;8.20;99.90;;;;;;5015761;28;20180;-83
2022/11/18 05:23:36;;;;;;;22.63;9.05;;;8.20;99.90;;;;;;5014848;28;20229;-75
2022/11/18 05:26:07;;;;;;;23.75;9.25;;;8.20;99.90;;;;;;5014691;28;20175;-75
2022/11/18 05:28:33;;;;;;;20.45;9.60;;;8.20;99.90;;;;;;5014681;28;20282;-75
2022/11/18 05:30:59;;;;;;;27.65;10.85;;;8.20;99.90;;;;;;5013976;28;20187;-75
2022/11/18 05:33:25;;;;;;;20.52;8.88;;;8.20;99.90;;;;;;5014055;28;20176;-79
2022/11/18 05:35:50;;;;;;;22.13;9.52;;;8.30;99.90;;;;;;5014405;28;20203;-75
2022/11/18 05:38:16;;;;;;;22.92;9.75;;;8.30;99.90;;;;;;5013844;28;20269;-75
2022/11/18 05:40:42;;;;;;;29.77;9.68;;;8.40;99.90;;;;;;5014197;28;20222;-76
2022/11/18 05:43:11;;;;;;;41.90;11.25;;;8.40;99.90;;;;;;5014755;28;20233;-76
2022/11/18 05:45:38;;;;;;;32.40;11.35;;;8.40;99.90;;;;;;5015400;28;20175;-76
2022/11/18 05:48:05;;;;;;;29.27;12.80;;;8.50;99.90;;;;;;5015532;28;20211;-76
2022/11/18 05:50:33;;;;;;;31.65;12.80;;;8.40;99.90;;;;;;5015888;28;20176;-75
2022/11/18 05:53:00;;;;;;;43.40;13.60;;;8.50;99.90;;;;;;5013856;28;20181;-75
2022/11/18 05:55:32;;;;;;;37.53;14.88;;;8.50;99.90;;;;;;5014671;28;20198;-75
2022/11/18 05:57:57;;;;;;;51.17;15.05;;;8.50;99.90;;;;;;5013447;28;20230;-75
2022/11/18 06:00:23;;;;;;;25.13;13.35;;;8.50;99.90;;;;;;5013521;28;20198;-75
2022/11/18 06:02:51;;;;;;;47.65;12.45;;;8.40;99.90;;;;;;5014232;28;20176;-75
2022/11/18 06:05:18;;;;;;;26.50;10.27;;;8.40;99.90;;;;;;5014613;28;20180;-75
2022/11/18 06:07:44;;;;;;;31.23;12.35;;;8.50;99.90;;;;;;5013184;28;20218;-75
2022/11/18 06:10:32;;;;;;;26.92;12.20;;;8.50;99.90;;;;;;5013583;28;20701;-75
2022/11/18 06:13:04;;;;;;;30.20;10.25;;;8.50;99.90;;;;;;5013243;28;20180;-75
2022/11/18 06:15:34;;;;;;;47.03;11.02;;;8.50;99.90;;;;;;5013496;28;20171;-75
2022/11/18 06:21:35;;;;;;;68.75;23.90;;;8.40;99.90;;;;;;5014642;28;20159;-75
2022/11/18 06:27:23;;;;;;;25.33;12.95;;;8.40;99.90;;;;;;5014709;28;20716;-75
2022/11/18 06:29:48;;;;;;;32.20;14.25;;;8.30;99.90;;;;;;5013730;28;20176;-75
2022/11/18 06:32:14;;;;;;;26.95;12.50;;;8.30;99.90;;;;;;5012992;28;20266;-75
2022/11/18 06:34:39;;;;;;;22.70;11.88;;;8.30;99.90;;;;;;5014515;28;20246;-75
2022/11/18 06:37:17;;;;;;;25.02;13.27;;;8.40;99.90;;;;;;5013163;28;20221;-75
2022/11/18 06:39:42;;;;;;;26.08;13.35;;;8.40;99.90;;;;;;5013684;28;20171;-75
2022/11/18 06:42:08;;;;;;;26.48;13.30;;;8.50;99.90;;;;;;5013190;28;20253;-75
2022/11/18 06:44:34;;;;;;;21.55;11.45;;;8.40;99.90;;;;;;5012722;28;20175;-75
2022/11/18 06:47:01;;;;;;;23.30;12.68;;;8.40;99.90;;;;;;5013824;28;20245;-75
2022/11/18 06:49:27;;;;;;;19.60;11.88;;;8.40;99.90;;;;;;5012611;28;20176;-75
2022/11/18 06:51:53;;;;;;;20.40;11.20;;;8.40;99.90;;;;;;5012688;28;20665;-74
2022/11/18 06:54:19;;;;;;;23.10;13.05;;;8.30;99.90;;;;;;5012771;28;20186;-75
2022/11/18 06:56:45;;;;;;;18.17;11.45;;;8.30;99.90;;;;;;5012865;28;20298;-75
2022/11/18 06:59:10;;;;;;;18.55;12.15;;;8.20;99.90;;;;;;5013852;28;20184;-75
2022/11/18 07:01:38;;;;;;;21.25;12.68;;;8.30;99.90;;;;;;5014039;28;20176;-75
2022/11/18 07:04:04;;;;;;;19.88;12.57;;;8.30;99.90;;;;;;5013743;28;20182;-75
2022/11/18 07:06:32;;;;;;;23.45;13.75;;;8.30;99.90;;;;;;5012462;28;20212;-75
2022/11/18 07:09:04;;;;;;;25.88;13.57;;;8.30;99.90;;;;;;5012687;28;20171;-76
2022/11/18 07:11:29;;;;;;;36.15;15.80;;;8.30;99.90;;;;;;5012465;28;20183;-76
2022/11/18 07:13:55;;;;;;;36.78;15.35;;;8.40;99.90;;;;;;5012724;28;20176;-75
2022/11/18 07:16:23;;;;;;;28.55;14.40;;;8.40;99.90;;;;;;5013446;28;20576;-76
2022/11/18 07:18:50;;;;;;;29.05;14.95;;;8.40;99.90;;;;;;5017300;28;20178;-75
2022/11/18 07:21:18;;;;;;;28.63;14.88;;;8.40;99.90;;;;;;5017747;28;20685;-75
2022/11/18 07:23:53;;;;;;;30.08;15.75;;;8.50;99.90;;;;;;5016555;28;20642;-75
2022/11/18 07:26:19;;;;;;;28.60;15.07;;;8.50;99.90;;;;;;5016137;28;20178;-75
2022/11/18 07:32:31;;;;;;;21.30;13.68;;;8.50;99.90;;;;;;5017702;28;20162;-75
2022/11/18 07:34:57;;;;;;;18.88;13.40;;;8.50;99.90;;;;;;5017689;28;20218;-80
2022/11/18 07:37:29;;;;;;;19.38;14.15;;;8.60;99.90;;;;;;5016293;28;20203;-75
2022/11/18 07:39:55;;;;;;;19.33;13.88;;;8.60;99.90;;;;;;5016126;28;20172;-75
2022/11/18 07:42:21;;;;;;;20.52;14.43;;;8.60;99.90;;;;;;5016634;28;20219;-75
2022/11/18 07:44:46;;;;;;;21.00;14.95;;;8.50;99.90;;;;;;5016095;28;20211;-75
2022/11/18 07:47:12;;;;;;;22.88;15.00;;;8.60;99.90;;;;;;5017280;28;20230;-75
2022/11/18 07:49:37;;;;;;;22.33;15.40;;;8.60;99.90;;;;;;5016747;28;20182;-76
2022/11/18 07:52:03;;;;;;;20.73;14.73;;;8.60;99.90;;;;;;5016464;28;20191;-76
2022/11/18 07:54:28;;;;;;;23.73;16.52;;;8.60;99.90;;;;;;5016020;28;20172;-76
2022/11/18 07:56:54;;;;;;;22.95;16.27;;;8.60;99.90;;;;;;5015764;28;20207;-75
2022/11/18 07:59:19;;;;;;;18.67;15.50;;;8.60;99.90;;;;;;5015753;28;20176;-75
2022/11/18 08:01:45;;;;;;;20.50;15.27;;;8.60;99.90;;;;;;5015619;28;20676;-75
2022/11/18 08:04:11;;;;;;;19.13;16.48;;;8.60;99.90;;;;;;5015651;28;20189;-75
2022/11/18 08:06:38;;;;;;;20.48;16.30;;;8.60;99.90;;;;;;5015434;28;20222;-75
2022/11/18 08:09:05;;;;;;;17.80;15.50;;;8.60;99.90;;;;;;5016420;28;20270;-75
2022/11/18 08:11:31;;;;;;;18.90;15.85;;;8.60;99.90;;;;;;5015754;28;20208;-75
2022/11/18 08:13:57;;;;;;;16.50;14.07;;;8.60;99.90;;;;;;5015967;28;20179;-75
2022/11/18 08:16:24;;;;;;;17.90;15.95;;;8.60;99.90;;;;;;5016591;28;20203;-75
2022/11/18 08:22:24;;;;;;;17.42;14.93;;;8.70;99.90;;;;;;5016887;28;20163;-75
2022/11/18 08:24:50;;;;;;;17.67;13.55;;;8.80;99.90;;;;;;5015623;28;20184;-75
2022/11/18 08:27:18;;;;;;;18.23;13.70;;;8.80;99.90;;;;;;5015636;28;20222;-75
2022/11/18 08:29:46;;;;;;;16.27;14.52;;;8.80;99.90;;;;;;5015697;28;20184;-75
2022/11/18 08:32:29;;;;;;;20.65;13.85;;;8.70;99.90;;;;;;5015819;28;20204;-75
2022/11/18 08:34:55;;;;;;;20.52;13.93;;;8.70;99.90;;;;;;5015046;28;20164;-75
2022/11/18 08:37:20;;;;;;;15.27;12.40;;;8.70;99.90;;;;;;5016166;28;20199;-75
2022/11/18 08:40:05;;;;;;;15.95;12.02;;;8.80;99.90;;;;;;5014961;28;20187;-75
2022/11/18 08:42:31;;;;;;;13.40;12.00;;;8.80;99.90;;;;;;5014981;28;20174;-75
2022/11/18 08:44:57;;;;;;;63.35;21.08;;;8.90;99.90;;;;;;5014930;28;20175;-75
2022/11/18 08:47:23;;;;;;;17.48;12.80;;;8.90;99.90;;;;;;5015012;28;20215;-75
2022/11/18 08:49:48;;;;;;;16.45;13.05;;;8.90;99.90;;;;;;5015654;28;20183;-76
2022/11/18 08:52:14;;;;;;;15.70;13.20;;;9.00;99.90;;;;;;5015326;28;20258;-75
2022/11/18 08:54:40;;;;;;;20.33;13.45;;;9.00;99.90;;;;;;5016278;28;20175;-76
2022/11/18 08:57:05;;;;;;;21.25;12.98;;;9.10;99.90;;;;;;5014602;28;20207;-75
2022/11/18 08:59:31;;;;;;;17.85;12.50;;;9.10;99.90;;;;;;5015754;28;20215;-75
2022/11/18 09:01:57;;;;;;;15.77;12.25;;;9.10;99.90;;;;;;5014507;28;20188;-76
2022/11/18 09:04:22;;;;;;;15.50;12.15;;;9.20;99.90;;;;;;5014520;28;20642;-75
2022/11/18 09:06:48;;;;;;;13.55;12.15;;;9.30;99.90;;;;;;5014366;28;20218;-76
2022/11/18 09:09:14;;;;;;;17.88;12.65;;;9.40;99.90;;;;;;5014701;28;20176;-75
2022/11/18 09:11:39;;;;;;;14.13;11.27;;;9.40;99.90;;;;;;5014671;28;20182;-75
2022/11/18 09:14:05;;;;;;;12.30;10.98;;;9.50;99.90;;;;;;5015445;28;20265;-75
2022/11/18 09:16:33;;;;;;;13.60;11.45;;;9.50;99.90;;;;;;5015043;28;20291;-76
2022/11/18 09:18:59;;;;;;;13.40;11.02;;;9.60;99.90;;;;;;5015477;28;20176;-76
2022/11/18 09:21:25;;;;;;;11.98;10.68;;;9.70;99.90;;;;;;5015267;28;20191;-75
2022/11/18 09:23:51;;;;;;;11.73;10.52;;;9.80;99.90;;;;;;5014461;28;20266;-75
2022/11/18 09:26:19;;;;;;;11.38;10.23;;;9.80;99.90;;;;;;5013992;28;20190;-76
2022/11/18 09:28:45;;;;;;;11.57;10.15;;;9.90;99.90;;;;;;5014323;28;20669;-75
2022/11/18 09:31:16;;;;;;;11.10;9.65;;;10.10;99.90;;;;;;5013969;28;20167;-76
2022/11/18 09:33:42;;;;;;;13.18;10.75;;;10.10;99.90;;;;;;5014233;28;20218;-75
2022/11/18 09:36:16;;;;;;;12.90;9.85;;;10.20;99.90;;;;;;5013923;28;20211;-76
2022/11/18 09:38:42;;;;;;;10.55;9.35;;;10.20;99.90;;;;;;5013467;28;20170;-76
2022/11/18 09:41:22;;;;;;;9.77;8.82;;;10.20;99.90;;;;;;5013843;28;20178;-76
2022/11/18 09:44:12;;;;;;;8.73;7.78;;;10.10;99.90;;;;;;5013973;28;20542;-76
2022/11/18 09:46:56;;;;;;;9.00;8.10;;;10.00;99.90;;;;;;5014441;28;20554;-75
2022/11/18 09:49:32;;;;;;;8.50;7.68;;;10.00;99.90;;;;;;5014433;28;20184;-75
2022/11/18 09:52:03;;;;;;;7.72;7.03;;;9.90;99.90;;;;;;5014916;28;20231;-75
2022/11/18 09:54:36;;;;;;;9.75;7.82;;;10.00;99.90;;;;;;5014385;28;20164;-75
2022/11/18 09:57:10;;;;;;;10.07;8.38;;;10.00;99.90;;;;;;5013425;28;20203;-75
2022/11/18 09:59:36;;;;;;;10.85;8.60;;;10.10;99.90;;;;;;5015034;28;20202;-75
2022/11/18 10:02:27;;;;;;;9.75;8.68;;;10.10;99.90;;;;;;5014867;28;20194;-75
2022/11/18 10:05:06;;;;;;;9.75;8.52;;;10.30;99.90;;;;;;5014071;28;20221;-75
2022/11/18 10:07:44;;;;;;;10.85;8.45;;;10.50;99.90;;;;;;5014103;28;20207;-76
2022/11/18 10:10:20;;;;;;;19.58;17.70;;;10.70;99.90;;;;;;5013418;28;20164;-76
2022/11/18 10:12:55;;;;;;;19.48;17.67;;;10.80;99.90;;;;;;5013892;28;20174;-76
2022/11/18 10:15:31;;;;;;;14.02;11.95;;;10.90;99.90;;;;;;5013239;28;20163;-76
2022/11/18 10:18:03;;;;;;;10.80;9.70;;;11.00;99.90;;;;;;5013566;28;20203;-76
2022/11/18 10:20:59;;;;;;;12.32;10.50;;;11.00;99.90;;;;;;5014244;28;20185;-75
2022/11/18 10:23:34;;;;;;;8.57;7.68;;;11.10;99.90;;;;;;5013454;28;20600;-75
2022/11/18 10:25:59;;;;;;;12.10;10.73;;;11.10;99.90;;;;;;5014599;28;20317;-76
2022/11/18 10:28:28;;;;;;;8.00;7.22;;;11.30;99.90;;;;;;5012779;28;20752;-75
2022/11/18 10:31:02;;;;;;;6.93;6.32;;;11.40;99.90;;;;;;5012858;28;20179;-75
2022/11/18 10:33:28;;;;;;;6.15;5.55;;;11.30;99.90;;;;;;5013051;28;20163;-75
2022/11/18 10:36:18;;;;;;;6.88;4.53;;;11.30;99.90;;;;;;5012994;28;20188;-75
2022/11/18 10:38:44;;;;;;;6.50;5.03;;;11.30;99.90;;;;;;5012901;28;20657;-75
2022/11/18 10:41:19;;;;;;;6.60;6.00;;;11.40;99.90;;;;;;5014066;28;20666;-75
2022/11/18 10:43:55;;;;;;;6.30;5.70;;;11.40;99.90;;;;;;5013017;28;20171;-75
2022/11/18 10:46:27;;;;;;;5.07;4.53;;;11.50;99.90;;;;;;5012654;28;20186;-75
2022/11/18 10:49:13;;;;;;;5.15;4.65;;;11.40;99.90;;;;;;5012824;28;20186;-75
2022/11/18 10:52:04;;;;;;;4.60;4.20;;;11.50;99.90;;;;;;5012793;28;20172;-76
2022/11/18 10:54:30;;;;;;;5.85;4.82;;;11.40;99.90;;;;;;5012833;28;20262;-76
2022/11/18 10:57:04;;;;;;;5.25;4.78;;;11.30;99.90;;;;;;5012722;28;20295;-76
2022/11/18 10:59:46;;;;;;;7.60;6.18;;;11.30;99.90;;;;;;5014209;28;20174;-75
2022/11/18 11:02:15;;;;;;;9.98;8.77;;;11.20;99.90;;;;;;5012673;28;20171;-75
2022/11/18 11:04:42;;;;;;;9.80;8.60;;;11.20;99.90;;;;;;5014132;28;20259;-75
2022/11/18 11:07:35;;;;;;;11.23;10.23;;;11.10;99.90;;;;;;5013625;28;20269;-76
2022/11/18 11:10:03;;;;;;;10.20;9.23;;;11.00;99.90;;;;;;5008594;28;20241;-76
2022/11/18 11:12:31;;;;;;;9.77;8.82;;;10.90;99.90;;;;;;5012457;28;20179;-76
2022/11/18 11:15:02;;;;;;;10.57;9.48;;;10.90;99.90;;;;;;5013633;28;20254;-76
2022/11/18 11:17:37;;;;;;;14.68;12.32;;;10.90;99.90;;;;;;5013217;28;20230;-76
2022/11/18 11:20:16;;;;;;;15.77;14.10;;;10.80;99.90;;;;;;5012396;28;20171;-76
2022/11/18 11:22:41;;;;;;;13.38;11.20;;;10.80;99.90;;;;;;5013596;28;20164;-76
2022/11/18 11:25:37;;;;;;;10.05;8.85;;;10.80;99.90;;;;;;5012619;28;20183;-76
2022/11/18 11:28:36;;;;;;;10.13;9.05;;;10.70;99.90;;;;;;5005511;28;20230;-75
2022/11/18 11:31:22;;;;;;;9.45;8.45;;;10.60;99.90;;;;;;5013480;28;20171;-75
2022/11/18 11:34:27;;;;;;;9.73;8.82;;;10.50;99.90;;;;;;5013492;28;20183;-75
2022/11/18 11:37:33;;;;;;;13.82;11.68;;;10.50;99.90;;;;;;5013127;28;20237;-76
2022/11/18 11:40:32;;;;;;;13.25;11.85;;;10.50;99.90;;;;;;5012389;28;20196;-76
2022/11/18 11:43:09;;;;;;;28.33;24.67;;;10.60;99.90;;;;;;4986687;28;20183;-75
2022/11/18 11:45:46;;;;;;;20.45;18.23;;;10.70;99.90;;;;;;5013579;28;20642;-75
2022/11/18 11:48:18;;;;;;;22.83;20.25;;;10.80;99.90;;;;;;5013232;28;20207;-75
2022/11/18 11:50:53;;;;;;;9.05;8.25;;;10.80;99.90;;;;;;5012322;28;20198;-75
2022/11/18 11:53:51;;;;;;;8.25;7.45;;;11.00;99.90;;;;;;5012174;28;20270;-75
2022/11/18 11:56:32;;;;;;;6.13;5.32;;;11.20;99.90;;;;;;5012046;28;20531;-75
2022/11/18 11:59:16;;;;;;;9.68;8.80;;;11.10;99.90;;;;;;5013198;28;20171;-75
2022/11/18 12:02:16;;;;;;;13.82;12.43;;;11.10;99.90;;;;;;5011961;28;20176;-75
2022/11/18 12:04:47;;;;;;;47.45;41.40;;;11.10;99.90;;;;;;5017181;28;20176;-75
2022/11/18 12:07:22;;;;;;;127.75;96.68;;;11.10;99.90;;;;;;5015555;28;20239;-76
2022/11/18 12:09:50;;;;;;;123.40;81.45;;;11.20;99.90;;;;;;5017352;28;20221;-76
2022/11/18 12:12:33;;;;;;;139.57;88.13;;;11.20;99.90;;;;;;5015600;28;20179;-75
2022/11/18 12:15:10;;;;;;;29.00;20.02;;;11.20;99.90;;;;;;5016871;28;20179;-75
2022/11/18 12:18:02;;;;;;;17.67;14.80;;;11.20;99.90;;;;;;5016454;28;20576;-76
2022/11/18 12:20:49;;;;;;;6.80;5.78;;;11.20;99.90;;;;;;5015483;28;20214;-76
2022/11/18 12:23:25;;;;;;;5.35;4.85;;;11.00;99.90;;;;;;5016628;28;20168;-75
2022/11/18 12:26:03;;;;;;;5.78;3.40;;;10.90;99.90;;;;;;5015317;28;20179;-75
2022/11/18 12:28:34;;;;;;;4.28;3.65;;;10.90;99.90;;;;;;5016485;28;20650;-75
2022/11/18 12:31:18;;;;;;;5.45;4.95;;;10.90;99.90;;;;;;5016045;28;20183;-75
2022/11/18 12:33:53;;;;;;;7.47;6.38;;;11.10;99.90;;;;;;5016225;28;20171;-75
2022/11/18 12:36:31;;;;;;;7.82;5.22;;;11.00;99.90;;;;;;5016241;28;20205;-76
2022/11/18 12:38:58;;;;;;;6.45;5.00;;;11.00;99.90;;;;;;5015037;28;20526;-75
2022/11/18 12:44:25;;;;;;;7.75;6.10;;;11.00;99.90;;;;;;5016461;28;20194;-75
2022/11/18 12:46:53;;;;;;;11.30;8.52;;;11.00;99.90;;;;;;5015046;28;20298;-76
2022/11/18 12:49:22;;;;;;;16.13;10.98;;;11.00;99.90;;;;;;5014806;28;20275;-76
2022/11/18 12:52:01;;;;;;;11.25;7.50;;;10.90;99.90;;;;;;5014829;28;20229;-76
2022/11/18 12:54:30;;;;;;;9.35;5.80;;;10.80;99.90;;;;;;5014736;28;20270;-76
2022/11/18 12:57:18;;;;;;;6.82;4.70;;;10.80;99.90;;;;;;5014614;28;20226;-75
2022/11/18 12:59:44;;;;;;;5.75;4.68;;;10.80;99.90;;;;;;5014092;28;20219;-75
2022/11/18 13:02:09;;;;;;;6.93;4.97;;;10.70;99.90;;;;;;5015225;28;20218;-75
2022/11/18 13:04:35;;;;;;;6.18;5.07;;;10.70;99.90;;;;;;5015343;28;20238;-75
2022/11/18 13:07:02;;;;;;;11.68;5.82;;;10.70;99.90;;;;;;5015650;28;20210;-75
2022/11/18 13:09:35;;;;;;;5.85;5.18;;;10.80;99.90;;;;;;5015303;28;20182;-75
2022/11/18 13:12:04;;;;;;;6.45;5.22;;;10.70;99.90;;;;;;5014754;28;20175;-75
2022/11/18 13:17:50;;;;;;;6.07;5.57;;;10.60;99.90;;;;;;5015822;28;20203;-76
2022/11/18 13:20:32;;;;;;;7.25;4.85;;;10.40;99.90;;;;;;5014373;28;20543;-76
2022/11/18 13:25:46;;;;;;;10.85;7.88;;;10.20;99.90;;;;;;5016001;28;20681;-76
2022/11/18 13:28:26;;;;;;;8.57;6.15;;;10.20;99.90;;;;;;5014268;28;20222;-76
2022/11/18 13:30:59;;;;;;;10.40;6.22;;;10.10;99.90;;;;;;5015596;28;20174;-76
2022/11/18 13:33:25;;;;;;;9.52;6.75;;;10.00;99.90;;;;;;5014580;28;20164;-76
2022/11/18 13:35:51;;;;;;;7.18;5.28;;;10.00;99.90;;;;;;5015109;28;20561;-76
2022/11/18 13:38:21;;;;;;;3.95;3.65;;;9.90;99.90;;;;;;5013752;28;20211;-76
2022/11/18 13:41:03;;;;;;;6.68;4.47;;;9.90;99.90;;;;;;5013894;28;20218;-75
2022/11/18 13:43:33;;;;;;;3.75;3.45;;;9.90;99.90;;;;;;5014768;28;20164;-75
2022/11/18 13:46:20;;;;;;;3.30;3.03;;;9.90;99.90;;;;;;5013828;28;20233;-75
2022/11/18 13:48:56;;;;;;;2.92;2.65;;;9.80;99.90;;;;;;5014520;28;20238;-76